sensor_id;sensor_type;location;lat;lon;timestamp;pressure;altitude;pressure_sealevel;temperature
60966;BMP180;46834;51.100;6.886;2022-10-24T00:00:08;100224.00;;;18.60
60966;BMP180;46834;51.100;6.886;2022-10-24T00:02:34;100234.00;;;18.70
60966;BMP180;46834;51.100;6.886;2022-10-24T00:05:00;100219.00;;;18.60
60966;BMP180;46834;51.100;6.886;2022-10-24T00:07:26;100219.00;;;18.60
60966;BMP180;46834;51.100;6.886;2022-10-24T00:09:52;100227.00;;;18.60
60966;BMP180;46834;51.100;6.886;2022-10-24T00:12:18;100229.00;;;18.60
60966;BMP180;46834;51.100;6.886;2022-10-24T00:14:44;100234.00;;;18.60
60966;BMP180;46834;51.100;6.886;2022-10-24T00:17:10;100216.00;;;18.60
60966;BMP180;46834;51.100;6.886;2022-10-24T00:19:36;100242.00;;;18.60
60966;BMP180;46834;51.100;6.886;2022-10-24T00:22:02;100236.00;;;18.60
60966;BMP180;46834;51.100;6.886;2022-10-24T00:24:28;100236.00;;;18.60
60966;BMP180;46834;51.100;6.886;2022-10-24T00:26:54;100236.00;;;18.60
60966;BMP180;46834;51.100;6.886;2022-10-24T00:29:19;100213.00;;;18.60
60966;BMP180;46834;51.100;6.886;2022-10-24T00:31:45;100228.00;;;18.60
60966;BMP180;46834;51.100;6.886;2022-10-24T00:34:11;100220.00;;;18.60
60966;BMP180;46834;51.100;6.886;2022-10-24T00:36:37;100225.00;;;18.60
60966;BMP180;46834;51.100;6.886;2022-10-24T00:39:03;100219.00;;;18.60
60966;BMP180;46834;51.100;6.886;2022-10-24T00:41:34;100233.00;;;18.60
60966;BMP180;46834;51.100;6.886;2022-10-24T00:44:27;100225.00;;;18.60
60966;BMP180;46834;51.100;6.886;2022-10-24T00:49:47;100224.00;;;18.60
60966;BMP180;46834;51.100;6.886;2022-10-24T00:52:22;100227.00;;;18.60
60966;BMP180;46834;51.100;6.886;2022-10-24T00:54:52;100224.00;;;18.60
60966;BMP180;46834;51.100;6.886;2022-10-24T00:57:45;100231.00;;;18.60
60966;BMP180;46834;51.100;6.886;2022-10-24T01:00:21;100218.00;;;18.60
60966;BMP180;46834;51.100;6.886;2022-10-24T01:02:47;100209.00;;;18.60
60966;BMP180;46834;51.100;6.886;2022-10-24T01:05:14;100204.00;;;18.60
60966;BMP180;46834;51.100;6.886;2022-10-24T01:08:23;100204.00;;;18.60
60966;BMP180;46834;51.100;6.886;2022-10-24T01:11:22;100201.00;;;18.50
60966;BMP180;46834;51.100;6.886;2022-10-24T01:14:50;100187.00;;;18.50
60966;BMP180;46834;51.100;6.886;2022-10-24T01:17:50;100203.00;;;18.50
60966;BMP180;46834;51.100;6.886;2022-10-24T01:24:00;100187.00;;;18.40
60966;BMP180;46834;51.100;6.886;2022-10-24T01:26:44;100183.00;;;18.40
60966;BMP180;46834;51.100;6.886;2022-10-24T01:35:29;100169.00;;;18.40
60966;BMP180;46834;51.100;6.886;2022-10-24T01:38:18;100172.00;;;18.40
60966;BMP180;46834;51.100;6.886;2022-10-24T01:40:58;100174.00;;;18.40
60966;BMP180;46834;51.100;6.886;2022-10-24T01:43:41;100174.00;;;18.40
60966;BMP180;46834;51.100;6.886;2022-10-24T01:46:15;100171.00;;;18.40
60966;BMP180;46834;51.100;6.886;2022-10-24T01:48:49;100160.00;;;18.40
60966;BMP180;46834;51.100;6.886;2022-10-24T01:51:19;100154.00;;;18.40
60966;BMP180;46834;51.100;6.886;2022-10-24T01:53:47;100153.00;;;18.40
60966;BMP180;46834;51.100;6.886;2022-10-24T01:56:13;100144.00;;;18.40
60966;BMP180;46834;51.100;6.886;2022-10-24T01:58:39;100141.00;;;18.40
60966;BMP180;46834;51.100;6.886;2022-10-24T02:01:11;100141.00;;;18.30
60966;BMP180;46834;51.100;6.886;2022-10-24T02:03:49;100149.00;;;18.30
60966;BMP180;46834;51.100;6.886;2022-10-24T02:06:31;100147.00;;;18.30
60966;BMP180;46834;51.100;6.886;2022-10-24T02:09:05;100147.00;;;18.30
60966;BMP180;46834;51.100;6.886;2022-10-24T02:11:33;100136.00;;;18.30
60966;BMP180;46834;51.100;6.886;2022-10-24T02:14:08;100134.00;;;18.30
60966;BMP180;46834;51.100;6.886;2022-10-24T02:16:35;100126.00;;;18.40
60966;BMP180;46834;51.100;6.886;2022-10-24T02:19:01;100132.00;;;18.30
60966;BMP180;46834;51.100;6.886;2022-10-24T02:27:15;100147.00;;;18.30
60966;BMP180;46834;51.100;6.886;2022-10-24T02:29:51;100131.00;;;18.30
60966;BMP180;46834;51.100;6.886;2022-10-24T02:32:28;100144.00;;;18.30
60966;BMP180;46834;51.100;6.886;2022-10-24T02:34:55;100127.00;;;18.30
60966;BMP180;46834;51.100;6.886;2022-10-24T02:37:25;100133.00;;;18.30
60966;BMP180;46834;51.100;6.886;2022-10-24T02:39:54;100136.00;;;18.30
60966;BMP180;46834;51.100;6.886;2022-10-24T02:42:23;100129.00;;;18.30
60966;BMP180;46834;51.100;6.886;2022-10-24T02:44:49;100120.00;;;18.30
60966;BMP180;46834;51.100;6.886;2022-10-24T02:47:18;100121.00;;;18.30
60966;BMP180;46834;51.100;6.886;2022-10-24T02:49:45;100129.00;;;18.30
60966;BMP180;46834;51.100;6.886;2022-10-24T02:52:12;100130.00;;;18.30
60966;BMP180;46834;51.100;6.886;2022-10-24T02:54:38;100110.00;;;18.30
60966;BMP180;46834;51.100;6.886;2022-10-24T02:57:04;100110.00;;;18.30
60966;BMP180;46834;51.100;6.886;2022-10-24T02:59:29;100123.00;;;18.30
60966;BMP180;46834;51.100;6.886;2022-10-24T03:01:55;100118.00;;;18.30
60966;BMP180;46834;51.100;6.886;2022-10-24T03:04:21;100126.00;;;18.30
60966;BMP180;46834;51.100;6.886;2022-10-24T03:06:48;100115.00;;;18.30
60966;BMP180;46834;51.100;6.886;2022-10-24T03:09:14;100121.00;;;18.30
60966;BMP180;46834;51.100;6.886;2022-10-24T03:11:40;100113.00;;;18.40
60966;BMP180;46834;51.100;6.886;2022-10-24T03:14:06;100112.00;;;18.30
60966;BMP180;46834;51.100;6.886;2022-10-24T03:16:31;100120.00;;;18.30
60966;BMP180;46834;51.100;6.886;2022-10-24T03:18:57;100120.00;;;18.30
60966;BMP180;46834;51.100;6.886;2022-10-24T03:21:23;100123.00;;;18.30
60966;BMP180;46834;51.100;6.886;2022-10-24T03:23:49;100109.00;;;18.30
60966;BMP180;46834;51.100;6.886;2022-10-24T03:26:15;100117.00;;;18.30
60966;BMP180;46834;51.100;6.886;2022-10-24T03:28:41;100115.00;;;18.40
60966;BMP180;46834;51.100;6.886;2022-10-24T03:31:06;100117.00;;;18.40
60966;BMP180;46834;51.100;6.886;2022-10-24T03:33:32;100120.00;;;18.40
60966;BMP180;46834;51.100;6.886;2022-10-24T03:35:58;100120.00;;;18.40
60966;BMP180;46834;51.100;6.886;2022-10-24T03:38:24;100123.00;;;18.40
60966;BMP180;46834;51.100;6.886;2022-10-24T03:40:50;100129.00;;;18.40
60966;BMP180;46834;51.100;6.886;2022-10-24T03:43:17;100118.00;;;18.40
60966;BMP180;46834;51.100;6.886;2022-10-24T03:45:43;100127.00;;;18.40
60966;BMP180;46834;51.100;6.886;2022-10-24T03:48:09;100119.00;;;18.30
60966;BMP180;46834;51.100;6.886;2022-10-24T03:50:35;100127.00;;;18.30
60966;BMP180;46834;51.100;6.886;2022-10-24T03:53:00;100123.00;;;18.30
60966;BMP180;46834;51.100;6.886;2022-10-24T03:55:27;100121.00;;;18.30
60966;BMP180;46834;51.100;6.886;2022-10-24T03:57:53;100122.00;;;18.40
60966;BMP180;46834;51.100;6.886;2022-10-24T04:00:19;100126.00;;;18.40
60966;BMP180;46834;51.100;6.886;2022-10-24T04:02:46;100130.00;;;18.40
60966;BMP180;46834;51.100;6.886;2022-10-24T04:05:13;100128.00;;;18.40
60966;BMP180;46834;51.100;6.886;2022-10-24T04:07:39;100132.00;;;18.40
60966;BMP180;46834;51.100;6.886;2022-10-24T04:10:05;100125.00;;;18.40
60966;BMP180;46834;51.100;6.886;2022-10-24T04:12:32;100129.00;;;18.30
60966;BMP180;46834;51.100;6.886;2022-10-24T04:14:58;100128.00;;;18.40
60966;BMP180;46834;51.100;6.886;2022-10-24T04:17:23;100123.00;;;18.30
60966;BMP180;46834;51.100;6.886;2022-10-24T04:19:49;100128.00;;;18.30
60966;BMP180;46834;51.100;6.886;2022-10-24T04:22:15;100126.00;;;18.30
60966;BMP180;46834;51.100;6.886;2022-10-24T04:24:41;100126.00;;;18.30
60966;BMP180;46834;51.100;6.886;2022-10-24T04:27:07;100127.00;;;18.30
60966;BMP180;46834;51.100;6.886;2022-10-24T04:29:33;100121.00;;;18.30
60966;BMP180;46834;51.100;6.886;2022-10-24T04:31:59;100136.00;;;18.30
60966;BMP180;46834;51.100;6.886;2022-10-24T04:34:25;100123.00;;;18.30
60966;BMP180;46834;51.100;6.886;2022-10-24T04:36:51;100143.00;;;18.30
60966;BMP180;46834;51.100;6.886;2022-10-24T04:39:17;100135.00;;;18.30
60966;BMP180;46834;51.100;6.886;2022-10-24T04:41:45;100141.00;;;18.30
60966;BMP180;46834;51.100;6.886;2022-10-24T04:44:11;100145.00;;;18.30
60966;BMP180;46834;51.100;6.886;2022-10-24T04:46:36;100134.00;;;18.30
60966;BMP180;46834;51.100;6.886;2022-10-24T04:49:02;100136.00;;;18.30
60966;BMP180;46834;51.100;6.886;2022-10-24T04:51:28;100142.00;;;18.40
60966;BMP180;46834;51.100;6.886;2022-10-24T04:53:54;100145.00;;;18.40
60966;BMP180;46834;51.100;6.886;2022-10-24T04:56:19;100135.00;;;18.40
60966;BMP180;46834;51.100;6.886;2022-10-24T04:58:45;100147.00;;;18.30
60966;BMP180;46834;51.100;6.886;2022-10-24T05:01:11;100136.00;;;18.30
60966;BMP180;46834;51.100;6.886;2022-10-24T05:03:37;100135.00;;;18.30
60966;BMP180;46834;51.100;6.886;2022-10-24T05:06:03;100139.00;;;18.30
60966;BMP180;46834;51.100;6.886;2022-10-24T05:08:29;100143.00;;;18.40
60966;BMP180;46834;51.100;6.886;2022-10-24T05:10:54;100138.00;;;18.30
60966;BMP180;46834;51.100;6.886;2022-10-24T05:13:20;100149.00;;;18.30
60966;BMP180;46834;51.100;6.886;2022-10-24T05:15:46;100146.00;;;18.40
60966;BMP180;46834;51.100;6.886;2022-10-24T05:18:11;100153.00;;;18.40
60966;BMP180;46834;51.100;6.886;2022-10-24T05:20:37;100162.00;;;18.40
60966;BMP180;46834;51.100;6.886;2022-10-24T05:23:03;100161.00;;;18.40
60966;BMP180;46834;51.100;6.886;2022-10-24T05:25:29;100157.00;;;18.40
60966;BMP180;46834;51.100;6.886;2022-10-24T05:27:54;100158.00;;;18.40
60966;BMP180;46834;51.100;6.886;2022-10-24T05:30:20;100151.00;;;18.30
60966;BMP180;46834;51.100;6.886;2022-10-24T05:32:46;100156.00;;;18.30
60966;BMP180;46834;51.100;6.886;2022-10-24T05:35:11;100162.00;;;18.30
60966;BMP180;46834;51.100;6.886;2022-10-24T05:37:38;100166.00;;;18.30
60966;BMP180;46834;51.100;6.886;2022-10-24T05:40:06;100158.00;;;18.30
60966;BMP180;46834;51.100;6.886;2022-10-24T05:42:33;100174.00;;;18.30
60966;BMP180;46834;51.100;6.886;2022-10-24T05:44:58;100175.00;;;18.30
60966;BMP180;46834;51.100;6.886;2022-10-24T05:47:24;100175.00;;;18.30
60966;BMP180;46834;51.100;6.886;2022-10-24T05:49:50;100173.00;;;18.30
60966;BMP180;46834;51.100;6.886;2022-10-24T05:52:15;100173.00;;;18.30
60966;BMP180;46834;51.100;6.886;2022-10-24T05:54:41;100162.00;;;18.30
60966;BMP180;46834;51.100;6.886;2022-10-24T05:57:06;100174.00;;;18.30
60966;BMP180;46834;51.100;6.886;2022-10-24T05:59:32;100171.00;;;18.30
60966;BMP180;46834;51.100;6.886;2022-10-24T06:01:58;100171.00;;;18.30
60966;BMP180;46834;51.100;6.886;2022-10-24T06:04:24;100174.00;;;18.30
60966;BMP180;46834;51.100;6.886;2022-10-24T06:06:49;100177.00;;;18.30
60966;BMP180;46834;51.100;6.886;2022-10-24T06:09:15;100178.00;;;18.30
60966;BMP180;46834;51.100;6.886;2022-10-24T06:11:41;100188.00;;;18.30
60966;BMP180;46834;51.100;6.886;2022-10-24T06:14:07;100180.00;;;18.30
60966;BMP180;46834;51.100;6.886;2022-10-24T06:16:34;100178.00;;;18.30
60966;BMP180;46834;51.100;6.886;2022-10-24T06:18:59;100199.00;;;18.30
60966;BMP180;46834;51.100;6.886;2022-10-24T06:21:25;100185.00;;;18.30
60966;BMP180;46834;51.100;6.886;2022-10-24T06:23:52;100189.00;;;18.30
60966;BMP180;46834;51.100;6.886;2022-10-24T06:26:18;100195.00;;;18.30
60966;BMP180;46834;51.100;6.886;2022-10-24T06:28:44;100195.00;;;18.30
60966;BMP180;46834;51.100;6.886;2022-10-24T06:31:11;100192.00;;;18.30
60966;BMP180;46834;51.100;6.886;2022-10-24T06:33:38;100203.00;;;18.30
60966;BMP180;46834;51.100;6.886;2022-10-24T06:36:06;100194.00;;;18.30
60966;BMP180;46834;51.100;6.886;2022-10-24T06:38:35;100192.00;;;18.30
60966;BMP180;46834;51.100;6.886;2022-10-24T06:41:10;100199.00;;;18.20
60966;BMP180;46834;51.100;6.886;2022-10-24T06:43:37;100205.00;;;18.20
60966;BMP180;46834;51.100;6.886;2022-10-24T06:46:07;100213.00;;;18.20
60966;BMP180;46834;51.100;6.886;2022-10-24T06:48:35;100210.00;;;18.20
60966;BMP180;46834;51.100;6.886;2022-10-24T06:51:01;100215.00;;;18.20
60966;BMP180;46834;51.100;6.886;2022-10-24T06:53:26;100219.00;;;18.20
60966;BMP180;46834;51.100;6.886;2022-10-24T06:55:52;100219.00;;;18.30
60966;BMP180;46834;51.100;6.886;2022-10-24T06:58:18;100223.00;;;18.30
60966;BMP180;46834;51.100;6.886;2022-10-24T07:00:43;100214.00;;;18.30
60966;BMP180;46834;51.100;6.886;2022-10-24T07:03:14;100222.00;;;18.20
60966;BMP180;46834;51.100;6.886;2022-10-24T07:05:40;100231.00;;;18.30
60966;BMP180;46834;51.100;6.886;2022-10-24T07:08:06;100228.00;;;18.30
60966;BMP180;46834;51.100;6.886;2022-10-24T07:10:31;100238.00;;;18.30
60966;BMP180;46834;51.100;6.886;2022-10-24T07:12:57;100233.00;;;18.30
60966;BMP180;46834;51.100;6.886;2022-10-24T07:15:23;100247.00;;;18.30
60966;BMP180;46834;51.100;6.886;2022-10-24T07:17:48;100250.00;;;18.30
60966;BMP180;46834;51.100;6.886;2022-10-24T07:20:14;100239.00;;;18.30
60966;BMP180;46834;51.100;6.886;2022-10-24T07:22:41;100252.00;;;18.40
60966;BMP180;46834;51.100;6.886;2022-10-24T07:25:07;100260.00;;;18.40
60966;BMP180;46834;51.100;6.886;2022-10-24T07:27:34;100258.00;;;18.40
60966;BMP180;46834;51.100;6.886;2022-10-24T07:30:00;100263.00;;;18.40
60966;BMP180;46834;51.100;6.886;2022-10-24T07:32:25;100263.00;;;18.50
60966;BMP180;46834;51.100;6.886;2022-10-24T07:34:51;100266.00;;;18.50
60966;BMP180;46834;51.100;6.886;2022-10-24T07:37:17;100279.00;;;18.50
60966;BMP180;46834;51.100;6.886;2022-10-24T07:39:44;100286.00;;;18.50
60966;BMP180;46834;51.100;6.886;2022-10-24T07:42:12;100275.00;;;18.60
60966;BMP180;46834;51.100;6.886;2022-10-24T07:44:38;100286.00;;;18.60
60966;BMP180;46834;51.100;6.886;2022-10-24T07:47:04;100288.00;;;18.70
60966;BMP180;46834;51.100;6.886;2022-10-24T07:49:32;100288.00;;;18.70
60966;BMP180;46834;51.100;6.886;2022-10-24T07:51:58;100292.00;;;18.70
60966;BMP180;46834;51.100;6.886;2022-10-24T07:54:24;100275.00;;;18.70
60966;BMP180;46834;51.100;6.886;2022-10-24T07:56:51;100283.00;;;18.80
60966;BMP180;46834;51.100;6.886;2022-10-24T07:59:17;100282.00;;;18.80
60966;BMP180;46834;51.100;6.886;2022-10-24T08:01:42;100286.00;;;18.80
60966;BMP180;46834;51.100;6.886;2022-10-24T08:04:09;100291.00;;;18.80
60966;BMP180;46834;51.100;6.886;2022-10-24T08:06:35;100283.00;;;18.80
60966;BMP180;46834;51.100;6.886;2022-10-24T08:09:02;100284.00;;;18.80
60966;BMP180;46834;51.100;6.886;2022-10-24T08:11:29;100285.00;;;18.80
60966;BMP180;46834;51.100;6.886;2022-10-24T08:13:56;100286.00;;;18.80
60966;BMP180;46834;51.100;6.886;2022-10-24T08:16:23;100295.00;;;18.90
60966;BMP180;46834;51.100;6.886;2022-10-24T08:18:51;100293.00;;;18.90
60966;BMP180;46834;51.100;6.886;2022-10-24T08:21:20;100284.00;;;18.90
60966;BMP180;46834;51.100;6.886;2022-10-24T08:23:50;100294.00;;;19.00
60966;BMP180;46834;51.100;6.886;2022-10-24T08:26:21;100291.00;;;19.00
60966;BMP180;46834;51.100;6.886;2022-10-24T08:28:47;100287.00;;;19.00
60966;BMP180;46834;51.100;6.886;2022-10-24T08:31:18;100295.00;;;19.10
60966;BMP180;46834;51.100;6.886;2022-10-24T08:33:45;100295.00;;;19.10
60966;BMP180;46834;51.100;6.886;2022-10-24T08:36:33;100299.00;;;19.10
60966;BMP180;46834;51.100;6.886;2022-10-24T08:39:01;100298.00;;;19.20
60966;BMP180;46834;51.100;6.886;2022-10-24T08:41:32;100290.00;;;19.20
60966;BMP180;46834;51.100;6.886;2022-10-24T08:44:11;100295.00;;;19.20
60966;BMP180;46834;51.100;6.886;2022-10-24T08:49:18;100297.00;;;19.30
60966;BMP180;46834;51.100;6.886;2022-10-24T08:52:27;100284.00;;;19.20
60966;BMP180;46834;51.100;6.886;2022-10-24T08:54:58;100303.00;;;19.30
60966;BMP180;46834;51.100;6.886;2022-10-24T08:57:31;100307.00;;;19.30
60966;BMP180;46834;51.100;6.886;2022-10-24T09:00:02;100304.00;;;19.30
60966;BMP180;46834;51.100;6.886;2022-10-24T09:02:36;100318.00;;;19.30
60966;BMP180;46834;51.100;6.886;2022-10-24T09:05:18;100315.00;;;19.30
60966;BMP180;46834;51.100;6.886;2022-10-24T09:07:46;100302.00;;;19.40
60966;BMP180;46834;51.100;6.886;2022-10-24T09:10:32;100316.00;;;19.40
60966;BMP180;46834;51.100;6.886;2022-10-24T09:13:00;100289.00;;;19.50
60966;BMP180;46834;51.100;6.886;2022-10-24T09:15:29;100301.00;;;19.50
60966;BMP180;46834;51.100;6.886;2022-10-24T09:17:57;100295.00;;;19.50
60966;BMP180;46834;51.100;6.886;2022-10-24T09:20:26;100309.00;;;19.60
60966;BMP180;46834;51.100;6.886;2022-10-24T09:22:56;100300.00;;;19.60
60966;BMP180;46834;51.100;6.886;2022-10-24T09:25:28;100295.00;;;19.60
60966;BMP180;46834;51.100;6.886;2022-10-24T09:27:57;100300.00;;;19.60
60966;BMP180;46834;51.100;6.886;2022-10-24T09:30:26;100300.00;;;19.70
60966;BMP180;46834;51.100;6.886;2022-10-24T09:32:55;100295.00;;;19.70
60966;BMP180;46834;51.100;6.886;2022-10-24T09:35:25;100299.00;;;19.70
60966;BMP180;46834;51.100;6.886;2022-10-24T09:37:54;100299.00;;;19.70
60966;BMP180;46834;51.100;6.886;2022-10-24T09:40:29;100299.00;;;19.70
60966;BMP180;46834;51.100;6.886;2022-10-24T09:45:44;100315.00;;;19.80
60966;BMP180;46834;51.100;6.886;2022-10-24T09:50:46;100335.00;;;19.80
60966;BMP180;46834;51.100;6.886;2022-10-24T09:53:33;100335.00;;;19.80
60966;BMP180;46834;51.100;6.886;2022-10-24T09:56:20;100335.00;;;19.80
60966;BMP180;46834;51.100;6.886;2022-10-24T09:58:45;100335.00;;;19.90
60966;BMP180;46834;51.100;6.886;2022-10-24T10:01:20;100340.00;;;19.80
60966;BMP180;46834;51.100;6.886;2022-10-24T10:04:04;100334.00;;;19.80
60966;BMP180;46834;51.100;6.886;2022-10-24T10:06:31;100346.00;;;19.90
60966;BMP180;46834;51.100;6.886;2022-10-24T10:08:58;100364.00;;;19.90
60966;BMP180;46834;51.100;6.886;2022-10-24T10:11:28;100361.00;;;19.90
60966;BMP180;46834;51.100;6.886;2022-10-24T10:14:00;100360.00;;;19.90
60966;BMP180;46834;51.100;6.886;2022-10-24T10:16:30;100374.00;;;19.90
60966;BMP180;46834;51.100;6.886;2022-10-24T10:19:14;100373.00;;;19.90
60966;BMP180;46834;51.100;6.886;2022-10-24T10:21:58;100361.00;;;19.90
60966;BMP180;46834;51.100;6.886;2022-10-24T10:24:43;100371.00;;;19.90
60966;BMP180;46834;51.100;6.886;2022-10-24T10:27:37;100378.00;;;19.90
60966;BMP180;46834;51.100;6.886;2022-10-24T10:33:22;100383.00;;;20.00
60966;BMP180;46834;51.100;6.886;2022-10-24T10:42:02;100392.00;;;20.00
60966;BMP180;46834;51.100;6.886;2022-10-24T10:45:05;100391.00;;;20.00
60966;BMP180;46834;51.100;6.886;2022-10-24T10:50:43;100407.00;;;20.00
60966;BMP180;46834;51.100;6.886;2022-10-24T11:02:38;100410.00;;;20.10
60966;BMP180;46834;51.100;6.886;2022-10-24T11:08:33;100414.00;;;20.20
60966;BMP180;46834;51.100;6.886;2022-10-24T11:11:33;100415.00;;;20.20
60966;BMP180;46834;51.100;6.886;2022-10-24T11:16:56;100410.00;;;20.30
60966;BMP180;46834;51.100;6.886;2022-10-24T11:25:38;100417.00;;;20.40
60966;BMP180;46834;51.100;6.886;2022-10-24T11:28:25;100415.00;;;20.40
60966;BMP180;46834;51.100;6.886;2022-10-24T11:31:07;100423.00;;;20.40
60966;BMP180;46834;51.100;6.886;2022-10-24T11:33:43;100424.00;;;20.50
60966;BMP180;46834;51.100;6.886;2022-10-24T11:36:29;100423.00;;;20.50
60966;BMP180;46834;51.100;6.886;2022-10-24T11:44:22;100439.00;;;20.50
60966;BMP180;46834;51.100;6.886;2022-10-24T11:47:03;100436.00;;;20.50
60966;BMP180;46834;51.100;6.886;2022-10-24T11:49:35;100435.00;;;20.60
60966;BMP180;46834;51.100;6.886;2022-10-24T11:52:23;100437.00;;;20.50
60966;BMP180;46834;51.100;6.886;2022-10-24T11:55:06;100434.00;;;20.50
60966;BMP180;46834;51.100;6.886;2022-10-24T11:57:34;100438.00;;;20.60
60966;BMP180;46834;51.100;6.886;2022-10-24T12:00:00;100398.00;;;20.60
60966;BMP180;46834;51.100;6.886;2022-10-24T12:03:31;100449.00;;;20.60
60966;BMP180;46834;51.100;6.886;2022-10-24T12:18:44;100451.00;;;20.60
60966;BMP180;46834;51.100;6.886;2022-10-24T12:21:23;100468.00;;;20.60
60966;BMP180;46834;51.100;6.886;2022-10-24T12:23:57;100471.00;;;20.60
60966;BMP180;46834;51.100;6.886;2022-10-24T12:26:29;100468.00;;;20.60
60966;BMP180;46834;51.100;6.886;2022-10-24T12:29:06;100452.00;;;20.60
60966;BMP180;46834;51.100;6.886;2022-10-24T12:31:44;100460.00;;;20.60
60966;BMP180;46834;51.100;6.886;2022-10-24T12:37:29;100457.00;;;20.60
60966;BMP180;46834;51.100;6.886;2022-10-24T12:39:56;100466.00;;;20.70
60966;BMP180;46834;51.100;6.886;2022-10-24T12:45:30;100460.00;;;20.70
60966;BMP180;46834;51.100;6.886;2022-10-24T12:58:18;100460.00;;;20.80
60966;BMP180;46834;51.100;6.886;2022-10-24T13:00:55;100452.00;;;20.80
60966;BMP180;46834;51.100;6.886;2022-10-24T13:03:49;100458.00;;;20.80
60966;BMP180;46834;51.100;6.886;2022-10-24T13:06:57;100445.00;;;20.80
60966;BMP180;46834;51.100;6.886;2022-10-24T13:13:09;100458.00;;;20.80
60966;BMP180;46834;51.100;6.886;2022-10-24T13:19:19;100451.00;;;20.80
60966;BMP180;46834;51.100;6.886;2022-10-24T13:21:56;100449.00;;;20.80
60966;BMP180;46834;51.100;6.886;2022-10-24T13:24:36;100440.00;;;20.80
60966;BMP180;46834;51.100;6.886;2022-10-24T13:37:24;100428.00;;;20.90
60966;BMP180;46834;51.100;6.886;2022-10-24T13:40:17;100419.00;;;20.90
60966;BMP180;46834;51.100;6.886;2022-10-24T13:42:57;100422.00;;;20.90
60966;BMP180;46834;51.100;6.886;2022-10-24T13:45:45;100431.00;;;20.90
60966;BMP180;46834;51.100;6.886;2022-10-24T13:48:19;100426.00;;;20.90
60966;BMP180;46834;51.100;6.886;2022-10-24T13:51:51;100435.00;;;20.90
60966;BMP180;46834;51.100;6.886;2022-10-24T13:54:05;100446.00;;;20.90
60966;BMP180;46834;51.100;6.886;2022-10-24T13:56:38;100442.00;;;21.00
60966;BMP180;46834;51.100;6.886;2022-10-24T13:59:34;100438.00;;;21.00
60966;BMP180;46834;51.100;6.886;2022-10-24T14:02:19;100441.00;;;21.00
60966;BMP180;46834;51.100;6.886;2022-10-24T14:04:48;100435.00;;;21.10
60966;BMP180;46834;51.100;6.886;2022-10-24T14:07:26;100434.00;;;21.00
60966;BMP180;46834;51.100;6.886;2022-10-24T14:09:59;100444.00;;;21.10
60966;BMP180;46834;51.100;6.886;2022-10-24T14:12:29;100444.00;;;21.10
60966;BMP180;46834;51.100;6.886;2022-10-24T14:14:56;100432.00;;;21.10
60966;BMP180;46834;51.100;6.886;2022-10-24T14:17:29;100445.00;;;21.10
60966;BMP180;46834;51.100;6.886;2022-10-24T14:20:23;100438.00;;;21.10
60966;BMP180;46834;51.100;6.886;2022-10-24T14:22:49;100436.00;;;21.10
60966;BMP180;46834;51.100;6.886;2022-10-24T14:27:57;100445.00;;;21.10
60966;BMP180;46834;51.100;6.886;2022-10-24T14:30:28;100451.00;;;21.10
60966;BMP180;46834;51.100;6.886;2022-10-24T14:33:20;100451.00;;;21.10
60966;BMP180;46834;51.100;6.886;2022-10-24T14:35:49;100447.00;;;21.10
60966;BMP180;46834;51.100;6.886;2022-10-24T14:38:17;100454.00;;;21.10
60966;BMP180;46834;51.100;6.886;2022-10-24T14:40:45;100449.00;;;21.10
60966;BMP180;46834;51.100;6.886;2022-10-24T14:43:29;100453.00;;;21.10
60966;BMP180;46834;51.100;6.886;2022-10-24T14:48:32;100458.00;;;21.20
60966;BMP180;46834;51.100;6.886;2022-10-24T14:51:32;100458.00;;;21.10
60966;BMP180;46834;51.100;6.886;2022-10-24T14:54:02;100473.00;;;21.20
60966;BMP180;46834;51.100;6.886;2022-10-24T14:56:33;100462.00;;;21.10
60966;BMP180;46834;51.100;6.886;2022-10-24T14:59:03;100459.00;;;21.20
60966;BMP180;46834;51.100;6.886;2022-10-24T15:01:30;100470.00;;;21.20
60966;BMP180;46834;51.100;6.886;2022-10-24T15:04:00;100468.00;;;21.20
60966;BMP180;46834;51.100;6.886;2022-10-24T15:06:42;100473.00;;;21.20
60966;BMP180;46834;51.100;6.886;2022-10-24T15:11:47;100469.00;;;21.10
60966;BMP180;46834;51.100;6.886;2022-10-24T15:14:39;100471.00;;;21.10
60966;BMP180;46834;51.100;6.886;2022-10-24T15:17:29;100475.00;;;21.10
60966;BMP180;46834;51.100;6.886;2022-10-24T15:20:01;100470.00;;;21.10
60966;BMP180;46834;51.100;6.886;2022-10-24T15:22:32;100454.00;;;21.20
60966;BMP180;46834;51.100;6.886;2022-10-24T15:25:06;100483.00;;;21.20
60966;BMP180;46834;51.100;6.886;2022-10-24T15:27:41;100468.00;;;21.20
60966;BMP180;46834;51.100;6.886;2022-10-24T15:30:35;100470.00;;;21.20
60966;BMP180;46834;51.100;6.886;2022-10-24T15:33:05;100472.00;;;21.30
60966;BMP180;46834;51.100;6.886;2022-10-24T15:35:39;100476.00;;;21.30
60966;BMP180;46834;51.100;6.886;2022-10-24T15:38:16;100468.00;;;21.20
60966;BMP180;46834;51.100;6.886;2022-10-24T15:40:46;100474.00;;;21.30
60966;BMP180;46834;51.100;6.886;2022-10-24T15:43:16;100470.00;;;21.20
60966;BMP180;46834;51.100;6.886;2022-10-24T15:45:44;100486.00;;;21.20
60966;BMP180;46834;51.100;6.886;2022-10-24T15:48:10;100480.00;;;21.20
60966;BMP180;46834;51.100;6.886;2022-10-24T15:50:43;100485.00;;;21.20
60966;BMP180;46834;51.100;6.886;2022-10-24T15:53:17;100491.00;;;21.10
60966;BMP180;46834;51.100;6.886;2022-10-24T15:55:43;100493.00;;;21.20
60966;BMP180;46834;51.100;6.886;2022-10-24T15:58:12;100490.00;;;21.10
60966;BMP180;46834;51.100;6.886;2022-10-24T16:00:38;100496.00;;;21.10
60966;BMP180;46834;51.100;6.886;2022-10-24T16:03:06;100494.00;;;21.10
60966;BMP180;46834;51.100;6.886;2022-10-24T16:05:40;100490.00;;;21.10
60966;BMP180;46834;51.100;6.886;2022-10-24T16:08:13;100488.00;;;21.10
60966;BMP180;46834;51.100;6.886;2022-10-24T16:10:40;100486.00;;;21.10
60966;BMP180;46834;51.100;6.886;2022-10-24T16:13:06;100498.00;;;21.10
60966;BMP180;46834;51.100;6.886;2022-10-24T16:15:35;100490.00;;;21.00
60966;BMP180;46834;51.100;6.886;2022-10-24T16:18:02;100494.00;;;21.00
60966;BMP180;46834;51.100;6.886;2022-10-24T16:20:28;100499.00;;;21.00